createdAt,value
2023-01-27T00:01:10.802Z,6.00
2023-01-27T00:03:40.436Z,6.00
2023-01-27T00:06:12.184Z,5.90
2023-01-27T00:08:40.614Z,5.90
2023-01-27T00:11:26.762Z,5.90
2023-01-27T00:13:54.982Z,5.90
2023-01-27T00:16:23.407Z,6.00
2023-01-27T00:18:53.413Z,6.00
2023-01-27T00:21:38.918Z,5.90
2023-01-27T00:24:30.725Z,6.00
2023-01-27T00:26:59.037Z,5.90
2023-01-27T00:29:27.790Z,5.90
2023-01-27T00:32:13.690Z,5.80
2023-01-27T00:34:43.652Z,5.90
2023-01-27T00:37:11.884Z,5.80
2023-01-27T00:39:40.656Z,5.70
2023-01-27T00:42:09.089Z,5.90
2023-01-27T00:44:37.425Z,5.90
2023-01-27T00:47:05.934Z,5.90
2023-01-27T00:49:34.143Z,6.00
2023-01-27T00:52:04.001Z,6.00
2023-01-27T00:54:32.322Z,6.00
2023-01-27T00:57:00.511Z,5.80
2023-01-27T00:59:28.992Z,5.80
2023-01-27T01:01:57.481Z,5.90
2023-01-27T01:04:25.749Z,5.90
2023-01-27T01:06:54.237Z,6.00
2023-01-27T01:09:24.224Z,6.00
2023-01-27T01:11:52.462Z,6.00
2023-01-27T01:14:20.857Z,5.90
2023-01-27T01:16:49.233Z,5.80
2023-01-27T01:19:17.475Z,5.80
2023-01-27T01:21:45.908Z,5.80
2023-01-27T01:24:14.757Z,5.80
2023-01-27T01:26:44.521Z,5.80
2023-01-27T01:29:12.913Z,5.80
2023-01-27T01:31:41.595Z,5.80
2023-01-27T01:34:10.410Z,5.90
2023-01-27T01:36:38.843Z,5.90
2023-01-27T01:39:07.225Z,5.90
2023-01-27T01:41:35.564Z,5.90
2023-01-27T01:44:27.173Z,5.90
2023-01-27T01:46:55.562Z,5.90
2023-01-27T01:49:28.897Z,5.80
2023-01-27T01:51:59.962Z,5.90
2023-01-27T01:54:33.125Z,5.90
2023-01-27T01:57:05.805Z,6.00
2023-01-27T01:59:39.497Z,5.90
2023-01-27T02:02:10.377Z,5.90
2023-01-27T02:04:43.407Z,5.90
2023-01-27T02:07:18.637Z,5.90
2023-01-27T02:09:47.035Z,6.00
2023-01-27T02:12:15.379Z,6.00
2023-01-27T02:14:45.136Z,6.00
2023-01-27T02:17:15.075Z,5.90
2023-01-27T02:19:50.485Z,6.00
2023-01-27T02:22:25.979Z,6.00
2023-01-27T02:25:03.264Z,6.00
2023-01-27T02:27:33.406Z,6.00
2023-01-27T02:30:01.698Z,6.10
2023-01-27T02:32:29.992Z,6.00
2023-01-27T02:34:58.963Z,6.00
2023-01-27T02:37:27.609Z,6.00
2023-01-27T02:39:56.843Z,5.90
2023-01-27T02:42:25.487Z,6.00
2023-01-27T02:44:55.175Z,5.90
2023-01-27T02:47:23.774Z,5.90
2023-01-27T02:49:54.427Z,5.90
2023-01-27T02:52:23.695Z,5.90
2023-01-27T02:54:52.049Z,5.90
2023-01-27T02:57:20.528Z,6.00
2023-01-27T02:59:48.785Z,6.00
2023-01-27T03:02:23.037Z,5.90
2023-01-27T03:04:51.791Z,5.90
2023-01-27T03:07:19.995Z,5.90
2023-01-27T03:09:48.417Z,5.90
2023-01-27T03:12:22.798Z,5.90
2023-01-27T03:15:10.942Z,5.80
2023-01-27T03:17:58.691Z,5.70
2023-01-27T03:20:27.200Z,5.70
2023-01-27T03:22:55.645Z,5.70
2023-01-27T03:25:24.018Z,5.70
2023-01-27T03:27:52.744Z,5.70
2023-01-27T03:30:21.111Z,5.70
2023-01-27T03:32:50.836Z,5.70
2023-01-27T03:35:19.814Z,5.90
2023-01-27T03:38:05.883Z,5.90
2023-01-27T03:40:52.351Z,5.80
2023-01-27T03:43:38.090Z,5.80
2023-01-27T03:46:22.573Z,5.70
2023-01-27T03:48:53.992Z,5.80
2023-01-27T03:51:24.345Z,5.70
2023-01-27T03:53:52.550Z,5.70
2023-01-27T03:56:23.035Z,5.70
2023-01-27T03:58:52.227Z,5.60
2023-01-27T04:01:23.144Z,5.60
2023-01-27T04:04:10.851Z,5.60
2023-01-27T04:06:53.371Z,5.60
2023-01-27T04:09:23.760Z,5.50
2023-01-27T04:11:58.620Z,5.50
2023-01-27T04:14:29.781Z,5.60
2023-01-27T04:16:59.855Z,5.50
2023-01-27T04:19:29.764Z,5.50
2023-01-27T04:21:59.315Z,5.40
2023-01-27T04:24:27.834Z,5.40
2023-01-27T04:26:58.555Z,5.60
2023-01-27T04:29:29.176Z,5.60
2023-01-27T04:31:58.817Z,5.50
2023-01-27T04:34:29.148Z,5.50
2023-01-27T04:36:57.641Z,5.50
2023-01-27T04:39:26.870Z,5.40
2023-01-27T04:41:55.033Z,5.30
2023-01-27T04:44:24.033Z,5.40
2023-01-27T04:46:54.101Z,5.40
2023-01-27T04:49:22.592Z,5.30
2023-01-27T04:51:52.415Z,5.40
2023-01-27T04:54:20.915Z,5.40
2023-01-27T04:56:57.999Z,5.40
2023-01-27T04:59:26.573Z,5.40
2023-01-27T05:01:54.831Z,5.40
2023-01-27T05:04:23.550Z,5.40
2023-01-27T05:06:53.271Z,5.40
2023-01-27T05:09:21.627Z,5.40
2023-01-27T05:11:50.109Z,5.30
2023-01-27T05:14:18.480Z,5.30
2023-01-27T05:16:46.802Z,5.30
2023-01-27T05:19:15.223Z,5.20
2023-01-27T05:21:44.519Z,5.30
2023-01-27T05:24:14.607Z,5.30
2023-01-27T05:26:42.991Z,5.40
2023-01-27T05:29:11.670Z,5.40
2023-01-27T05:31:40.198Z,5.30
2023-01-27T05:34:08.759Z,5.30
2023-01-27T05:36:36.903Z,5.20
2023-01-27T05:39:07.789Z,5.10
2023-01-27T05:41:39.134Z,5.00
2023-01-27T05:44:08.091Z,5.00
2023-01-27T05:46:40.693Z,5.00
2023-01-27T05:49:09.568Z,4.90
2023-01-27T05:51:39.661Z,4.80
2023-01-27T05:54:08.744Z,4.70
2023-01-27T05:56:39.262Z,4.70
2023-01-27T05:59:07.878Z,4.70
2023-01-27T06:01:37.655Z,4.60
2023-01-27T06:04:06.393Z,4.70
2023-01-27T06:06:35.438Z,4.70
2023-01-27T06:09:03.820Z,4.70
2023-01-27T06:11:32.322Z,4.60
2023-01-27T06:14:01.924Z,4.50
2023-01-27T06:16:30.348Z,4.50
2023-01-27T06:18:58.880Z,4.60
2023-01-27T06:21:27.081Z,4.60
2023-01-27T06:23:56.100Z,4.50
2023-01-27T06:26:24.711Z,4.50
2023-01-27T06:28:53.027Z,4.50
2023-01-27T06:31:23.617Z,4.50
2023-01-27T06:33:52.420Z,4.50
2023-01-27T06:36:23.088Z,4.40
2023-01-27T06:38:52.488Z,4.50
2023-01-27T06:41:20.825Z,4.50
2023-01-27T06:43:49.145Z,4.50
2023-01-27T06:46:17.758Z,4.50
2023-01-27T06:48:47.380Z,4.50
2023-01-27T06:51:15.706Z,4.50
2023-01-27T06:53:44.172Z,4.40
2023-01-27T06:56:12.341Z,4.30
2023-01-27T06:58:40.526Z,4.20
2023-01-27T07:01:09.056Z,4.20
2023-01-27T07:03:37.476Z,4.20
2023-01-27T07:06:07.780Z,4.20
2023-01-27T07:08:36.295Z,4.20
2023-01-27T07:11:05.723Z,4.30
2023-01-27T07:13:34.009Z,4.30
2023-01-27T07:16:02.671Z,4.30
2023-01-27T07:18:31.196Z,4.30
2023-01-27T07:20:59.416Z,4.30
2023-01-27T07:23:29.335Z,4.30
2023-01-27T07:26:00.015Z,4.30
2023-01-27T07:28:29.357Z,4.20
2023-01-27T07:31:01.772Z,4.30
2023-01-27T07:33:30.484Z,4.30
2023-01-27T07:35:58.748Z,4.30
2023-01-27T07:38:28.660Z,4.30
2023-01-27T07:40:58.122Z,4.30
2023-01-27T07:43:26.593Z,4.30
2023-01-27T07:45:57.185Z,4.30
2023-01-27T07:48:25.966Z,4.30
2023-01-27T07:50:54.119Z,4.30
2023-01-27T07:53:22.596Z,4.30
2023-01-27T07:55:52.513Z,4.10
2023-01-27T07:58:21.365Z,4.20
2023-01-27T08:00:49.789Z,4.20
2023-01-27T08:03:24.742Z,4.20
2023-01-27T08:05:53.454Z,4.10
2023-01-27T08:08:21.673Z,4.10
2023-01-27T08:10:51.824Z,4.20
2023-01-27T08:13:20.327Z,4.20
2023-01-27T08:15:48.452Z,4.30
2023-01-27T08:18:16.991Z,4.30
2023-01-27T08:20:46.181Z,4.30
2023-01-27T08:23:14.618Z,4.20
2023-01-27T08:25:43.234Z,4.20
2023-01-27T08:28:12.991Z,4.40
2023-01-27T08:30:41.540Z,4.40
2023-01-27T08:33:09.825Z,4.40
2023-01-27T08:35:39.390Z,4.30
2023-01-27T08:38:07.817Z,4.40
2023-01-27T08:40:36.054Z,4.40
2023-01-27T08:43:05.165Z,4.40
2023-01-27T08:45:35.323Z,4.50
2023-01-27T08:48:05.767Z,4.50
2023-01-27T08:50:34.785Z,4.50
2023-01-27T08:53:04.292Z,4.60
2023-01-27T08:55:34.650Z,4.40
2023-01-27T08:58:03.440Z,4.40
2023-01-27T09:00:31.634Z,4.40
2023-01-27T09:03:01.728Z,4.40
2023-01-27T09:05:30.464Z,4.50
2023-01-27T09:07:58.804Z,4.30
2023-01-27T09:10:27.227Z,4.40
2023-01-27T09:12:55.641Z,4.50
2023-01-27T09:15:23.902Z,4.50
2023-01-27T09:17:52.400Z,4.50
2023-01-27T09:20:22.591Z,4.60
2023-01-27T09:22:51.078Z,4.70
2023-01-27T09:25:19.560Z,4.80
2023-01-27T09:27:47.796Z,4.80
2023-01-27T09:30:17.827Z,4.80
2023-01-27T09:32:46.591Z,4.70
2023-01-27T09:35:15.217Z,4.80
2023-01-27T09:37:49.195Z,4.80
2023-01-27T09:40:29.902Z,4.90
2023-01-27T09:43:28.017Z,4.90
2023-01-27T09:46:28.428Z,5.00
2023-01-27T09:49:22.301Z,5.00
2023-01-27T09:52:02.077Z,5.00
2023-01-27T09:54:44.424Z,5.10
2023-01-27T09:57:21.933Z,5.00
2023-01-27T10:00:02.931Z,5.00
2023-01-27T10:03:07.583Z,5.00
2023-01-27T10:06:19.966Z,5.00
2023-01-27T10:09:02.446Z,5.00
2023-01-27T10:11:40.867Z,4.90
2023-01-27T10:14:22.462Z,4.90
2023-01-27T10:17:13.813Z,4.90
2023-01-27T10:19:55.269Z,5.00
2023-01-27T10:22:31.908Z,5.10
2023-01-27T10:25:15.068Z,5.10
2023-01-27T10:27:49.375Z,5.20
2023-01-27T10:30:25.554Z,5.20
2023-01-27T10:33:02.521Z,5.20
2023-01-27T10:35:36.548Z,5.30
2023-01-27T10:38:12.196Z,5.20
2023-01-27T10:40:49.986Z,5.30
2023-01-27T10:43:27.553Z,5.50
2023-01-27T10:46:05.104Z,5.50
2023-01-27T10:48:40.545Z,5.60
2023-01-27T10:51:13.190Z,5.40
2023-01-27T10:53:53.578Z,5.40
2023-01-27T10:56:30.693Z,5.50
2023-01-27T10:59:06.281Z,5.60
2023-01-27T11:01:37.403Z,5.60
2023-01-27T11:04:13.773Z,5.70
2023-01-27T11:06:43.573Z,5.60
2023-01-27T11:09:24.978Z,5.70
2023-01-27T11:11:54.973Z,5.70
2023-01-27T11:14:29.203Z,5.70
2023-01-27T11:17:04.191Z,5.80
2023-01-27T11:19:43.676Z,5.80
2023-01-27T11:22:20.211Z,5.80
2023-01-27T11:24:56.720Z,5.70
2023-01-27T11:27:38.162Z,5.70
2023-01-27T11:30:16.952Z,5.70
2023-01-27T11:32:53.896Z,5.60
2023-01-27T11:35:23.843Z,5.70
2023-01-27T11:37:58.253Z,5.80
2023-01-27T11:40:34.689Z,5.70
2023-01-27T11:43:05.024Z,5.60
2023-01-27T11:45:38.498Z,5.70
2023-01-27T11:48:14.006Z,5.70
2023-01-27T11:50:44.374Z,5.60
2023-01-27T11:53:18.047Z,5.70
2023-01-27T11:55:48.604Z,5.70
2023-01-27T11:58:23.977Z,5.70
2023-01-27T12:00:58.034Z,5.70
2023-01-27T12:03:32.894Z,5.70
2023-01-27T12:06:05.706Z,5.70
2023-01-27T12:08:39.074Z,5.70
2023-01-27T12:11:25.338Z,5.50
2023-01-27T12:13:56.108Z,5.40
2023-01-27T12:16:30.688Z,5.40
2023-01-27T12:19:04.537Z,5.50
2023-01-27T12:21:40.686Z,5.40
2023-01-27T12:24:23.559Z,5.40
2023-01-27T12:26:54.805Z,5.40
2023-01-27T12:29:28.242Z,5.30
2023-01-27T12:32:01.741Z,5.30
2023-01-27T12:34:34.620Z,5.30
2023-01-27T12:37:05.746Z,5.40
2023-01-27T12:39:42.811Z,5.50
2023-01-27T12:42:38.631Z,5.50
2023-01-27T12:45:25.973Z,5.60
2023-01-27T12:48:01.469Z,5.60
2023-01-27T12:50:31.701Z,5.50
2023-01-27T12:53:10.497Z,5.40
2023-01-27T12:55:42.888Z,5.40
2023-01-27T12:58:36.979Z,5.40
2023-01-27T13:01:07.563Z,5.40
2023-01-27T13:03:43.610Z,5.40
2023-01-27T13:06:17.319Z,5.50
2023-01-27T13:08:46.138Z,5.40
2023-01-27T13:11:14.759Z,5.50
2023-01-27T13:13:52.179Z,5.60
2023-01-27T13:16:28.729Z,5.50
2023-01-27T13:19:00.329Z,5.60
2023-01-27T13:21:33.855Z,5.50
2023-01-27T13:24:05.626Z,5.50
2023-01-27T13:26:37.362Z,5.50
2023-01-27T13:29:13.040Z,5.40
2023-01-27T13:31:47.209Z,5.40
2023-01-27T13:34:24.815Z,5.60
2023-01-27T13:36:57.976Z,5.50
2023-01-27T13:39:36.491Z,5.50
2023-01-27T13:42:16.217Z,5.50
2023-01-27T13:44:49.347Z,5.60
2023-01-27T13:47:24.483Z,5.70
2023-01-27T13:49:58.978Z,5.60
2023-01-27T13:52:27.543Z,5.60
2023-01-27T13:54:56.184Z,5.60
2023-01-27T13:57:59.683Z,5.50
2023-01-27T14:00:37.038Z,5.40
2023-01-27T14:03:21.931Z,5.40
2023-01-27T14:06:08.942Z,5.40
2023-01-27T14:08:55.436Z,5.20
2023-01-27T14:11:31.147Z,5.30
2023-01-27T14:14:22.801Z,5.20
2023-01-27T14:17:26.696Z,5.20
2023-01-27T14:20:29.247Z,5.20
2023-01-27T14:23:14.685Z,5.20
2023-01-27T14:25:50.355Z,5.10
2023-01-27T14:28:28.333Z,5.10
2023-01-27T14:31:02.508Z,5.10
2023-01-27T14:33:44.097Z,5.00
2023-01-27T14:36:21.569Z,5.10
2023-01-27T14:38:58.695Z,5.10
2023-01-27T14:41:33.570Z,5.00
2023-01-27T14:44:08.176Z,5.10
2023-01-27T14:46:51.746Z,5.10
2023-01-27T14:49:30.777Z,5.20
2023-01-27T14:52:07.411Z,5.20
2023-01-27T14:54:57.098Z,5.10
2023-01-27T14:57:34.471Z,5.10
2023-01-27T15:00:19.458Z,5.10
2023-01-27T15:02:54.303Z,5.10
2023-01-27T15:05:30.974Z,5.20
2023-01-27T15:08:07.778Z,5.30
2023-01-27T15:10:44.180Z,5.30
2023-01-27T15:13:49.492Z,5.40
2023-01-27T15:16:28.919Z,5.30
2023-01-27T15:19:34.494Z,5.40
2023-01-27T15:22:31.208Z,5.30
2023-01-27T15:25:12.990Z,5.30
2023-01-27T15:27:43.946Z,5.20
2023-01-27T15:30:25.565Z,5.10
2023-01-27T15:32:54.170Z,5.10
2023-01-27T15:35:41.493Z,5.10
2023-01-27T15:38:21.192Z,5.10
2023-01-27T15:41:13.735Z,5.00
2023-01-27T15:44:05.278Z,5.10
2023-01-27T15:46:35.915Z,5.10
2023-01-27T15:49:05.950Z,4.90
2023-01-27T15:51:38.228Z,4.90
2023-01-27T15:54:07.958Z,5.00
2023-01-27T15:56:48.311Z,4.90
2023-01-27T15:59:22.321Z,5.00
2023-01-27T16:02:01.098Z,5.00
2023-01-27T16:04:32.195Z,5.10
2023-01-27T16:07:03.614Z,5.10
2023-01-27T16:09:36.749Z,5.00
2023-01-27T16:12:08.367Z,4.80
2023-01-27T16:14:43.901Z,4.80
2023-01-27T16:17:25.049Z,4.80
2023-01-27T16:20:04.490Z,4.80
2023-01-27T16:22:36.915Z,4.90
2023-01-27T16:25:22.864Z,4.70
2023-01-27T16:27:58.558Z,4.70
2023-01-27T16:30:31.159Z,4.70
2023-01-27T16:33:06.766Z,4.80
2023-01-27T16:35:43.927Z,4.80
2023-01-27T16:38:22.315Z,4.80
2023-01-27T16:40:55.089Z,4.70
2023-01-27T16:43:26.344Z,4.70
2023-01-27T16:45:57.086Z,4.70
2023-01-27T16:48:31.071Z,4.60
2023-01-27T16:51:19.991Z,4.60
2023-01-27T16:53:50.526Z,4.70
2023-01-27T16:56:24.829Z,4.70
2023-01-27T16:58:55.472Z,4.70
2023-01-27T17:01:29.007Z,4.70
2023-01-27T17:04:04.891Z,4.70
2023-01-27T17:06:36.237Z,4.60
2023-01-27T17:09:04.688Z,4.60
2023-01-27T17:11:34.150Z,4.50
2023-01-27T17:14:04.151Z,4.50
2023-01-27T17:16:37.085Z,4.60
2023-01-27T17:19:11.860Z,4.60
2023-01-27T17:21:43.468Z,4.70
2023-01-27T17:24:19.374Z,4.60
2023-01-27T17:26:51.112Z,4.60
2023-01-27T17:29:22.795Z,4.70
2023-01-27T17:31:52.746Z,4.70
2023-01-27T17:34:22.884Z,4.60
2023-01-27T17:37:08.697Z,4.60
2023-01-27T17:39:40.446Z,4.60
2023-01-27T17:42:08.990Z,4.70
2023-01-27T17:44:37.401Z,4.70
2023-01-27T17:47:08.195Z,4.50
2023-01-27T17:49:36.440Z,4.40
2023-01-27T17:52:10.804Z,4.40
2023-01-27T17:54:41.580Z,4.50
2023-01-27T17:57:18.262Z,4.40
2023-01-27T17:59:57.597Z,4.50
2023-01-27T18:02:30.140Z,4.50
2023-01-27T18:05:02.742Z,4.50
2023-01-27T18:07:32.259Z,4.50
2023-01-27T18:10:00.943Z,4.60
2023-01-27T18:12:33.032Z,4.60
2023-01-27T18:15:34.816Z,4.60
2023-01-27T18:18:06.459Z,4.60
2023-01-27T18:20:37.403Z,4.50
2023-01-27T18:23:15.595Z,4.40
2023-01-27T18:25:51.543Z,4.50
2023-01-27T18:28:21.115Z,4.50
2023-01-27T18:30:51.038Z,4.50
2023-01-27T18:33:20.728Z,4.50
2023-01-27T18:35:58.544Z,4.50
2023-01-27T18:38:28.436Z,4.60
2023-01-27T18:41:08.679Z,4.60
2023-01-27T18:43:37.083Z,4.60
2023-01-27T18:46:11.645Z,4.60
2023-01-27T18:48:41.453Z,4.80
2023-01-27T18:51:13.097Z,4.80
2023-01-27T18:53:41.699Z,4.60
2023-01-27T18:56:10.803Z,4.50
2023-01-27T18:58:39.449Z,4.60
2023-01-27T19:01:15.867Z,4.60
2023-01-27T19:03:45.949Z,4.60
2023-01-27T19:06:16.865Z,4.70
2023-01-27T19:08:45.538Z,4.80
2023-01-27T19:11:17.157Z,4.70
2023-01-27T19:13:48.334Z,4.60
2023-01-27T19:16:19.173Z,4.60
2023-01-27T19:18:48.927Z,4.70
2023-01-27T19:21:18.093Z,4.80
2023-01-27T19:23:48.371Z,4.70
2023-01-27T19:26:18.574Z,4.60
2023-01-27T19:28:48.954Z,4.70
2023-01-27T19:31:17.608Z,4.70
2023-01-27T19:33:47.536Z,4.60
2023-01-27T19:36:22.673Z,4.60
2023-01-27T19:38:53.159Z,4.70
2023-01-27T19:41:21.869Z,4.80
2023-01-27T19:43:50.408Z,4.80
2023-01-27T19:46:22.426Z,4.80
2023-01-27T19:48:52.216Z,4.80
2023-01-27T19:51:21.876Z,4.90
2023-01-27T19:53:50.244Z,4.80
2023-01-27T19:56:20.407Z,4.90
2023-01-27T19:58:51.892Z,5.00
2023-01-27T20:01:21.021Z,4.90
2023-01-27T20:03:50.017Z,4.90
2023-01-27T20:06:22.678Z,4.80
2023-01-27T20:08:54.522Z,4.80
2023-01-27T20:11:35.212Z,4.80
2023-01-27T20:14:05.509Z,4.80
2023-01-27T20:16:34.601Z,4.80
2023-01-27T20:19:02.922Z,4.80
2023-01-27T20:21:34.692Z,4.70
2023-01-27T20:24:03.350Z,4.70
2023-01-27T20:26:32.519Z,4.70
2023-01-27T20:29:01.124Z,4.80
2023-01-27T20:31:29.571Z,4.70
2023-01-27T20:33:57.995Z,4.80
2023-01-27T20:36:26.460Z,4.80
2023-01-27T20:38:56.135Z,4.70
2023-01-27T20:41:26.114Z,4.70
2023-01-27T20:43:58.080Z,4.80
2023-01-27T20:46:26.499Z,4.80
2023-01-27T20:48:54.769Z,4.80
2023-01-27T20:51:23.204Z,4.80
2023-01-27T20:53:51.619Z,4.80
2023-01-27T20:56:23.024Z,4.70
2023-01-27T20:58:52.115Z,4.80
2023-01-27T21:01:22.570Z,4.90
2023-01-27T21:03:51.924Z,4.80
2023-01-27T21:06:20.738Z,4.80
2023-01-27T21:08:50.148Z,4.70
2023-01-27T21:11:21.444Z,4.70
2023-01-27T21:13:50.483Z,4.70
2023-01-27T21:16:18.721Z,4.80
2023-01-27T21:18:47.285Z,4.80
2023-01-27T21:21:27.245Z,4.70
2023-01-27T21:23:55.781Z,4.80
2023-01-27T21:26:25.656Z,4.80
2023-01-27T21:28:54.094Z,4.90
2023-01-27T21:31:24.417Z,4.80
2023-01-27T21:33:53.005Z,4.70
2023-01-27T21:36:21.303Z,4.80
2023-01-27T21:38:50.665Z,4.80
2023-01-27T21:41:45.989Z,4.70
2023-01-27T21:44:36.886Z,4.80
2023-01-27T21:47:06.034Z,4.60
2023-01-27T21:49:55.871Z,4.60
2023-01-27T21:52:24.681Z,4.60
2023-01-27T21:54:53.082Z,4.60
2023-01-27T21:57:21.347Z,4.60
2023-01-27T21:59:51.095Z,4.60
2023-01-27T22:02:19.374Z,4.60
2023-01-27T22:04:48.039Z,4.70
2023-01-27T22:07:18.386Z,4.70
2023-01-27T22:09:47.174Z,4.70
2023-01-27T22:12:16.822Z,4.80
2023-01-27T22:14:45.247Z,4.80
2023-01-27T22:17:14.878Z,4.80
2023-01-27T22:19:43.224Z,4.80
2023-01-27T22:22:13.914Z,4.90
2023-01-27T22:24:42.741Z,4.80
2023-01-27T22:27:11.290Z,4.80
2023-01-27T22:29:39.603Z,4.80
2023-01-27T22:32:08.002Z,4.80
2023-01-27T22:34:37.782Z,4.80
2023-01-27T22:37:06.269Z,4.80
2023-01-27T22:39:35.045Z,4.90
2023-01-27T22:42:03.452Z,4.80
2023-01-27T22:44:31.975Z,4.70
2023-01-27T22:47:00.391Z,4.80
2023-01-27T22:49:28.800Z,4.80
2023-01-27T22:51:58.566Z,4.80
2023-01-27T22:54:26.783Z,4.70
2023-01-27T22:56:55.109Z,4.70
2023-01-27T22:59:23.588Z,4.60
2023-01-27T23:01:51.845Z,4.60
2023-01-27T23:04:20.127Z,4.70
2023-01-27T23:06:48.405Z,4.60
2023-01-27T23:09:18.369Z,4.70
2023-01-27T23:11:46.718Z,4.70
2023-01-27T23:14:15.163Z,4.60
2023-01-27T23:16:43.406Z,4.60
2023-01-27T23:19:12.433Z,4.60
2023-01-27T23:21:40.980Z,4.60
2023-01-27T23:24:09.252Z,4.60
2023-01-27T23:26:39.147Z,4.60
2023-01-27T23:29:23.027Z,4.60
2023-01-27T23:31:52.655Z,4.60
2023-01-27T23:34:21.155Z,4.50
2023-01-27T23:36:49.482Z,4.50
2023-01-27T23:39:18.333Z,4.60
2023-01-27T23:41:47.978Z,4.60
2023-01-27T23:44:16.522Z,4.60
2023-01-27T23:46:45.255Z,4.70
2023-01-27T23:49:13.625Z,4.70
2023-01-27T23:51:41.807Z,4.60
2023-01-27T23:54:10.525Z,4.60
2023-01-27T23:56:38.728Z,4.60
2023-01-27T23:59:08.333Z,4.50
